createdAt,value
2023-02-11T00:00:35.696Z,1.81
2023-02-11T00:03:38.960Z,1.82
2023-02-11T00:06:41.473Z,1.77
2023-02-11T00:09:44.040Z,1.59
2023-02-11T00:12:46.408Z,1.70
2023-02-11T00:15:49.839Z,1.66
2023-02-11T00:18:54.111Z,1.63
2023-02-11T00:21:56.958Z,1.66
2023-02-11T00:24:59.750Z,1.45
2023-02-11T00:28:02.487Z,1.49
2023-02-11T00:31:05.046Z,1.42
2023-02-11T00:34:07.979Z,1.52
2023-02-11T00:37:12.098Z,1.37
2023-02-11T00:40:17.345Z,1.54
2023-02-11T00:43:19.644Z,1.30
2023-02-11T00:46:22.834Z,1.40
2023-02-11T00:49:25.465Z,1.51
2023-02-11T00:52:28.062Z,1.37
2023-02-11T00:55:30.956Z,1.38
2023-02-11T00:58:33.830Z,1.56
2023-02-11T01:01:36.309Z,1.51
2023-02-11T01:04:39.011Z,1.31
2023-02-11T01:07:42.770Z,1.52
2023-02-11T01:10:45.423Z,1.45
2023-02-11T01:13:49.383Z,1.31
2023-02-11T01:16:52.021Z,1.44
2023-02-11T01:19:56.709Z,1.38
2023-02-11T01:22:59.329Z,1.37
2023-02-11T01:26:01.971Z,1.51
2023-02-11T01:29:04.934Z,1.67
2023-02-11T01:32:07.291Z,1.74
2023-02-11T01:35:10.167Z,1.79
2023-02-11T01:38:24.002Z,1.81
2023-02-11T01:41:27.483Z,1.64
2023-02-11T01:44:35.956Z,1.50
2023-02-11T01:47:38.585Z,1.66
2023-02-11T01:50:42.768Z,1.64
2023-02-11T01:54:06.180Z,1.60
2023-02-11T01:57:25.331Z,1.48
2023-02-11T02:00:37.211Z,1.48
2023-02-11T02:03:43.649Z,1.42
2023-02-11T02:06:56.000Z,1.55
2023-02-11T02:10:07.125Z,1.47
2023-02-11T02:13:12.077Z,1.31
2023-02-11T02:16:17.973Z,1.29
2023-02-11T02:19:48.413Z,1.40
2023-02-11T02:23:21.708Z,1.39
2023-02-11T02:26:32.943Z,1.31
2023-02-11T02:29:57.478Z,1.28
2023-02-11T02:33:24.787Z,1.23
2023-02-11T02:37:09.678Z,1.15
2023-02-11T02:40:25.633Z,1.11
2023-02-11T02:43:29.458Z,0.94
2023-02-11T02:46:33.893Z,1.13
2023-02-11T02:49:39.003Z,1.05
2023-02-11T02:53:18.783Z,1.00
2023-02-11T02:56:33.618Z,0.83
2023-02-11T02:59:51.570Z,1.04
2023-02-11T03:03:13.163Z,1.07
2023-02-11T03:06:31.238Z,1.04
2023-02-11T03:10:00.438Z,0.95
2023-02-11T03:13:05.337Z,0.95
2023-02-11T03:16:19.932Z,0.88
2023-02-11T03:19:24.308Z,0.67
2023-02-11T03:22:29.388Z,0.89
2023-02-11T03:25:37.752Z,0.87
2023-02-11T03:29:25.449Z,0.83
2023-02-11T03:32:30.394Z,0.78
2023-02-11T03:35:39.742Z,0.66
2023-02-11T03:38:51.880Z,0.53
2023-02-11T03:41:58.602Z,0.72
2023-02-11T03:45:09.601Z,0.70
2023-02-11T03:48:21.453Z,0.78
2023-02-11T03:51:25.458Z,0.62
2023-02-11T03:54:30.953Z,0.73
2023-02-11T03:57:34.728Z,0.55
2023-02-11T04:00:39.868Z,0.57
2023-02-11T04:03:42.494Z,0.81
2023-02-11T04:06:44.866Z,0.80
2023-02-11T04:09:47.483Z,0.59
2023-02-11T04:12:49.850Z,0.77
2023-02-11T04:15:52.833Z,0.68
2023-02-11T04:18:55.304Z,0.75
2023-02-11T04:21:57.976Z,0.75
2023-02-11T04:25:00.277Z,0.68
2023-02-11T04:28:03.034Z,0.65
2023-02-11T04:31:05.632Z,0.48
2023-02-11T04:34:08.234Z,0.60
2023-02-11T04:37:10.584Z,0.66
2023-02-11T04:40:13.520Z,0.50
2023-02-11T04:43:16.255Z,0.54
2023-02-11T04:46:18.943Z,0.35
2023-02-11T04:49:21.514Z,0.49
2023-02-11T04:52:24.131Z,0.20
2023-02-11T04:55:26.438Z,0.42
2023-02-11T04:58:29.056Z,0.45
2023-02-11T05:01:31.858Z,0.42
2023-02-11T05:04:34.552Z,0.26
2023-02-11T05:07:36.995Z,0.42
2023-02-11T05:10:39.629Z,0.45
2023-02-11T05:13:42.020Z,0.26
2023-02-11T05:16:44.744Z,0.39
2023-02-11T05:19:47.086Z,0.23
2023-02-11T05:22:49.769Z,0.36
2023-02-11T05:25:56.725Z,0.31
2023-02-11T05:28:59.543Z,0.26
2023-02-11T05:32:01.868Z,0.11
2023-02-11T05:35:04.764Z,0.10
2023-02-11T05:38:07.094Z,0.23
2023-02-11T05:41:11.217Z,0.21
2023-02-11T05:44:13.630Z,0.19
2023-02-11T05:47:16.277Z,0.21
2023-02-11T05:50:19.044Z,0.02
2023-02-11T05:53:22.182Z,0.20
2023-02-11T05:56:24.523Z,0.18
2023-02-11T05:59:27.126Z,0.03
2023-02-11T06:02:29.476Z,-0.05
2023-02-11T06:05:32.430Z,0.10
2023-02-11T06:08:35.729Z,-0.10
2023-02-11T06:11:39.600Z,0.00
2023-02-11T06:14:42.310Z,0.08
2023-02-11T06:17:44.903Z,-0.09
2023-02-11T06:20:47.198Z,-0.22
2023-02-11T06:23:49.785Z,-0.01
2023-02-11T06:26:52.279Z,-0.01
2023-02-11T06:29:54.876Z,0.05
2023-02-11T06:32:57.260Z,-0.06
2023-02-11T06:36:00.098Z,0.09
2023-02-11T06:39:02.844Z,-0.03
2023-02-11T06:42:08.041Z,0.06
2023-02-11T06:45:11.133Z,0.35
2023-02-11T06:48:13.853Z,0.29
2023-02-11T06:51:16.830Z,0.50
2023-02-11T06:54:19.482Z,0.52
2023-02-11T06:57:21.850Z,0.44
2023-02-11T07:00:25.548Z,0.64
2023-02-11T07:03:28.026Z,0.54
2023-02-11T07:06:30.674Z,0.82
2023-02-11T07:09:33.043Z,0.86
2023-02-11T07:12:35.690Z,0.97
2023-02-11T07:15:38.282Z,1.00
2023-02-11T07:18:43.634Z,0.87
2023-02-11T07:21:45.944Z,0.91
2023-02-11T07:24:48.553Z,0.94
2023-02-11T07:27:51.111Z,1.20
2023-02-11T07:30:53.894Z,1.29
2023-02-11T07:33:59.975Z,1.26
2023-02-11T07:37:03.072Z,1.56
2023-02-11T07:40:05.904Z,1.87
2023-02-11T07:43:09.483Z,1.98
2023-02-11T07:46:20.674Z,2.22
2023-02-11T07:49:23.404Z,2.46
2023-02-11T07:52:25.807Z,2.59
2023-02-11T07:55:29.578Z,2.67
2023-02-11T07:58:32.695Z,2.72
2023-02-11T08:01:35.346Z,2.69
2023-02-11T08:04:56.154Z,2.69
2023-02-11T08:07:58.748Z,2.70
2023-02-11T08:11:13.906Z,2.92
2023-02-11T08:14:16.511Z,2.82
2023-02-11T08:17:18.859Z,2.97
2023-02-11T08:20:21.452Z,3.09
2023-02-11T08:23:24.501Z,3.33
2023-02-11T08:26:29.263Z,3.44
2023-02-11T08:29:31.573Z,3.50
2023-02-11T08:32:35.197Z,3.41
2023-02-11T08:35:39.842Z,3.33
2023-02-11T08:38:43.667Z,3.37
2023-02-11T08:41:48.924Z,3.55
2023-02-11T08:44:51.590Z,3.37
2023-02-11T08:47:53.950Z,3.59
2023-02-11T08:50:57.650Z,3.65
2023-02-11T08:54:00.915Z,3.74
2023-02-11T08:57:04.131Z,3.83
2023-02-11T09:00:07.080Z,3.72
2023-02-11T09:03:09.717Z,4.28
2023-02-11T09:06:12.870Z,4.15
2023-02-11T09:09:16.534Z,4.40
2023-02-11T09:12:18.866Z,4.73
2023-02-11T09:15:21.517Z,5.26
2023-02-11T09:18:23.993Z,6.05
2023-02-11T09:21:27.678Z,6.33
2023-02-11T09:24:30.022Z,6.80
2023-02-11T09:27:33.025Z,7.76
2023-02-11T09:30:37.392Z,8.79
2023-02-11T09:33:47.865Z,9.87
2023-02-11T09:36:50.292Z,9.72
2023-02-11T09:39:52.902Z,9.97
2023-02-11T09:43:05.920Z,10.79
2023-02-11T09:46:12.926Z,10.15
2023-02-11T09:49:21.941Z,10.50
2023-02-11T09:52:41.785Z,9.62
2023-02-11T09:55:48.363Z,10.30
2023-02-11T09:58:51.142Z,9.99
2023-02-11T10:02:40.222Z,10.20
2023-02-11T10:06:04.324Z,9.66
2023-02-11T10:09:27.765Z,9.16
2023-02-11T10:12:41.067Z,8.56
2023-02-11T10:16:08.081Z,8.86
2023-02-11T10:19:26.579Z,8.02
2023-02-11T10:22:37.657Z,8.08
2023-02-11T10:25:56.363Z,7.93
2023-02-11T10:29:05.659Z,7.74
2023-02-11T10:32:25.025Z,8.00
2023-02-11T10:35:27.402Z,8.36
2023-02-11T10:38:30.770Z,8.72
2023-02-11T10:41:37.054Z,8.92
2023-02-11T10:44:50.043Z,8.88
2023-02-11T10:47:52.577Z,9.07
2023-02-11T10:51:26.866Z,8.76
2023-02-11T10:54:29.148Z,8.42
2023-02-11T10:57:52.717Z,8.94
2023-02-11T11:00:57.249Z,9.55
2023-02-11T11:04:00.053Z,10.14
2023-02-11T11:07:14.207Z,9.79
2023-02-11T11:10:46.982Z,10.47
2023-02-11T11:14:00.351Z,10.45
2023-02-11T11:17:02.989Z,10.90
2023-02-11T11:20:28.520Z,11.20
2023-02-11T11:23:31.849Z,11.60
2023-02-11T11:26:43.806Z,11.52
2023-02-11T11:29:49.876Z,11.28
2023-02-11T11:32:52.646Z,11.30
2023-02-11T11:36:03.349Z,11.06
2023-02-11T11:39:20.542Z,10.29
2023-02-11T11:42:34.301Z,10.17
2023-02-11T11:45:36.669Z,10.41
2023-02-11T11:48:44.278Z,9.93
2023-02-11T11:51:58.061Z,9.87
2023-02-11T11:55:53.088Z,9.57
2023-02-11T11:58:56.098Z,9.18
2023-02-11T12:02:08.682Z,9.23
2023-02-11T12:05:46.662Z,9.52
2023-02-11T12:09:00.396Z,9.54
2023-02-11T12:12:21.732Z,9.74
2023-02-11T12:15:40.605Z,9.74
2023-02-11T12:18:53.974Z,9.48
2023-02-11T12:22:23.906Z,9.46
2023-02-11T12:26:25.176Z,9.46
2023-02-11T12:29:45.979Z,9.61
2023-02-11T12:33:07.638Z,9.71
2023-02-11T12:36:25.168Z,9.52
2023-02-11T12:39:47.444Z,9.76
2023-02-11T12:43:17.797Z,9.89
2023-02-11T12:46:21.092Z,10.01
2023-02-11T12:49:34.487Z,9.98
2023-02-11T12:52:49.019Z,9.94
2023-02-11T12:55:55.235Z,9.93
2023-02-11T12:59:00.647Z,10.08
2023-02-11T13:02:16.806Z,10.27
2023-02-11T13:05:57.644Z,10.14
2023-02-11T13:09:04.477Z,10.24
2023-02-11T13:12:26.762Z,11.34
2023-02-11T13:15:30.311Z,12.21
2023-02-11T13:19:13.568Z,12.59
2023-02-11T13:22:44.689Z,12.15
2023-02-11T13:25:58.519Z,11.73
2023-02-11T13:29:27.517Z,11.30
2023-02-11T13:32:55.844Z,10.58
2023-02-11T13:35:58.063Z,10.30
2023-02-11T13:39:04.690Z,9.73
2023-02-11T13:42:15.688Z,9.46
2023-02-11T13:45:33.805Z,9.30
2023-02-11T13:48:39.015Z,9.17
2023-02-11T13:51:43.178Z,9.13
2023-02-11T13:54:51.757Z,9.00
2023-02-11T13:58:29.747Z,8.77
2023-02-11T14:02:12.546Z,8.75
2023-02-11T14:05:36.874Z,8.66
2023-02-11T14:08:58.656Z,8.61
2023-02-11T14:12:23.755Z,8.43
2023-02-11T14:15:27.260Z,8.30
2023-02-11T14:18:45.212Z,8.24
2023-02-11T14:21:47.581Z,8.24
2023-02-11T14:25:01.403Z,8.34
2023-02-11T14:28:32.693Z,8.23
2023-02-11T14:32:06.140Z,8.25
2023-02-11T14:35:45.420Z,8.45
2023-02-11T14:39:26.689Z,8.43
2023-02-11T14:42:30.998Z,8.40
2023-02-11T14:45:37.059Z,8.43
2023-02-11T14:48:45.548Z,8.24
2023-02-11T14:51:48.407Z,8.31
2023-02-11T14:54:51.900Z,8.29
2023-02-11T14:58:19.569Z,8.24
2023-02-11T15:01:35.364Z,8.25
2023-02-11T15:04:39.972Z,8.22
2023-02-11T15:08:02.919Z,8.15
2023-02-11T15:11:12.164Z,8.15
2023-02-11T15:14:29.844Z,7.97
2023-02-11T15:17:32.968Z,8.04
2023-02-11T15:20:35.988Z,7.85
2023-02-11T15:23:40.704Z,7.93
2023-02-11T15:26:43.259Z,7.93
2023-02-11T15:29:49.465Z,7.91
2023-02-11T15:33:00.692Z,7.86
2023-02-11T15:36:03.882Z,7.81
2023-02-11T15:39:32.971Z,7.63
2023-02-11T15:42:50.638Z,7.70
2023-02-11T15:45:59.727Z,7.49
2023-02-11T15:49:02.718Z,7.58
2023-02-11T15:52:08.213Z,7.40
2023-02-11T15:55:15.914Z,7.28
2023-02-11T15:58:19.113Z,7.22
2023-02-11T16:01:37.072Z,7.30
2023-02-11T16:04:39.851Z,7.13
2023-02-11T16:07:49.811Z,7.09
2023-02-11T16:11:03.334Z,7.03
2023-02-11T16:14:23.335Z,7.13
2023-02-11T16:17:28.661Z,6.93
2023-02-11T16:20:31.538Z,6.88
2023-02-11T16:23:42.061Z,7.02
2023-02-11T16:26:48.936Z,6.85
2023-02-11T16:29:52.398Z,6.95
2023-02-11T16:32:55.083Z,6.96
2023-02-11T16:36:02.043Z,6.79
2023-02-11T16:39:04.380Z,6.90
2023-02-11T16:42:07.720Z,6.90
2023-02-11T16:45:10.157Z,6.74
2023-02-11T16:48:18.232Z,6.79
2023-02-11T16:51:20.769Z,6.78
2023-02-11T16:54:24.107Z,6.58
2023-02-11T16:57:29.853Z,6.54
2023-02-11T17:00:33.096Z,6.60
2023-02-11T17:03:40.037Z,6.47
2023-02-11T17:06:42.958Z,6.54
2023-02-11T17:09:45.549Z,6.33
2023-02-11T17:12:49.976Z,6.30
2023-02-11T17:15:52.622Z,6.28
2023-02-11T17:18:55.477Z,6.42
2023-02-11T17:21:57.883Z,6.38
2023-02-11T17:25:01.012Z,6.26
2023-02-11T17:28:08.194Z,6.39
2023-02-11T17:31:11.152Z,6.19
2023-02-11T17:34:14.000Z,6.32
2023-02-11T17:37:16.759Z,6.14
2023-02-11T17:40:19.312Z,6.20
2023-02-11T17:43:28.759Z,6.13
2023-02-11T17:46:34.569Z,6.21
2023-02-11T17:49:37.311Z,6.12
2023-02-11T17:52:39.764Z,6.13
2023-02-11T17:55:42.749Z,6.26
2023-02-11T17:58:48.869Z,6.12
2023-02-11T18:01:52.012Z,6.29
2023-02-11T18:04:57.558Z,6.22
2023-02-11T18:07:59.912Z,6.23
2023-02-11T18:11:02.834Z,6.35
2023-02-11T18:14:07.808Z,6.29
2023-02-11T18:17:10.419Z,6.31
2023-02-11T18:20:12.971Z,6.31
2023-02-11T18:23:15.610Z,6.23
2023-02-11T18:26:20.554Z,6.35
2023-02-11T18:29:23.206Z,6.43
2023-02-11T18:32:25.669Z,6.48
2023-02-11T18:35:28.261Z,6.28
2023-02-11T18:38:30.563Z,6.22
2023-02-11T18:41:33.694Z,6.35
2023-02-11T18:44:36.649Z,6.34
2023-02-11T18:47:39.371Z,6.30
2023-02-11T18:50:43.329Z,6.18
2023-02-11T18:53:45.966Z,6.29
2023-02-11T18:56:48.302Z,6.12
2023-02-11T18:59:51.254Z,6.13
2023-02-11T19:02:53.581Z,6.11
2023-02-11T19:05:56.221Z,6.27
2023-02-11T19:09:01.800Z,6.26
2023-02-11T19:12:07.271Z,6.14
2023-02-11T19:15:09.760Z,6.16
2023-02-11T19:18:13.849Z,6.15
2023-02-11T19:21:16.155Z,6.36
2023-02-11T19:24:19.894Z,6.38
2023-02-11T19:27:22.413Z,6.26
2023-02-11T19:30:25.038Z,6.34
2023-02-11T19:33:27.312Z,6.47
2023-02-11T19:36:30.497Z,6.47
2023-02-11T19:39:32.981Z,6.32
2023-02-11T19:42:35.658Z,6.29
2023-02-11T19:45:38.096Z,6.42
2023-02-11T19:48:41.376Z,6.47
2023-02-11T19:51:43.938Z,6.47
2023-02-11T19:54:46.865Z,6.47
2023-02-11T19:57:49.235Z,6.29
2023-02-11T20:00:51.871Z,6.46
2023-02-11T20:03:57.100Z,6.26
2023-02-11T20:06:59.475Z,6.30
2023-02-11T20:10:02.347Z,6.32
2023-02-11T20:13:04.994Z,6.33
2023-02-11T20:16:11.003Z,6.46
2023-02-11T20:19:17.734Z,6.30
2023-02-11T20:22:20.678Z,6.33
2023-02-11T20:25:23.038Z,6.46
2023-02-11T20:28:25.761Z,6.34
2023-02-11T20:31:30.115Z,6.48
2023-02-11T20:34:32.946Z,6.49
2023-02-11T20:37:35.301Z,6.46
2023-02-11T20:40:38.484Z,6.49
2023-02-11T20:43:41.897Z,6.50
2023-02-11T20:46:48.261Z,6.37
2023-02-11T20:49:54.483Z,6.37
2023-02-11T20:52:57.260Z,6.50
2023-02-11T20:56:06.370Z,6.35
2023-02-11T20:59:09.834Z,6.52
2023-02-11T21:02:13.594Z,6.34
2023-02-11T21:05:16.535Z,6.35
2023-02-11T21:08:19.007Z,6.31
2023-02-11T21:11:21.702Z,6.26
2023-02-11T21:14:26.922Z,6.31
2023-02-11T21:17:29.855Z,6.29
2023-02-11T21:20:32.220Z,6.41
2023-02-11T21:23:35.925Z,6.34
2023-02-11T21:26:39.102Z,6.43
2023-02-11T21:29:53.458Z,6.27
2023-02-11T21:32:58.961Z,6.31
2023-02-11T21:36:04.269Z,6.39
2023-02-11T21:39:06.970Z,6.21
2023-02-11T21:42:09.779Z,6.19
2023-02-11T21:45:13.319Z,6.35
2023-02-11T21:48:17.942Z,6.13
2023-02-11T21:51:23.837Z,6.18
2023-02-11T21:54:31.993Z,6.13
2023-02-11T21:57:34.482Z,6.17
2023-02-11T22:00:37.693Z,6.22
2023-02-11T22:03:40.494Z,6.10
2023-02-11T22:06:43.034Z,6.17
2023-02-11T22:09:45.776Z,6.22
2023-02-11T22:12:48.163Z,6.19
2023-02-11T22:15:58.758Z,6.16
2023-02-11T22:19:02.572Z,5.98
2023-02-11T22:22:05.291Z,5.99
2023-02-11T22:25:08.012Z,6.05
2023-02-11T22:28:10.675Z,5.84
2023-02-11T22:31:15.542Z,5.78
2023-02-11T22:34:18.377Z,5.75
2023-02-11T22:37:20.956Z,5.60
2023-02-11T22:40:23.620Z,5.57
2023-02-11T22:43:27.268Z,5.82
2023-02-11T22:46:29.945Z,5.75
2023-02-11T22:49:35.698Z,5.75
2023-02-11T22:52:38.361Z,5.58
2023-02-11T22:55:40.721Z,5.57
2023-02-11T22:58:43.627Z,5.71
2023-02-11T23:01:46.454Z,5.71
2023-02-11T23:04:50.030Z,5.56
2023-02-11T23:07:52.491Z,5.50
2023-02-11T23:10:55.315Z,5.45
2023-02-11T23:13:58.600Z,5.63
2023-02-11T23:17:01.227Z,5.47
2023-02-11T23:20:03.956Z,5.60
2023-02-11T23:23:06.830Z,5.61
2023-02-11T23:26:12.663Z,5.57
2023-02-11T23:29:15.598Z,5.38
2023-02-11T23:32:19.242Z,5.31
2023-02-11T23:35:24.892Z,5.49
2023-02-11T23:38:27.242Z,5.50
2023-02-11T23:41:29.883Z,5.45
2023-02-11T23:44:32.204Z,5.35
2023-02-11T23:47:35.293Z,5.43
2023-02-11T23:50:39.637Z,5.37
2023-02-11T23:53:42.434Z,5.28
2023-02-11T23:56:44.813Z,5.56
2023-02-11T23:59:49.976Z,5.55
